createdAt,value
2022-11-18T00:00:58.641Z,8.60
2022-11-18T00:03:27.749Z,9.23
2022-11-18T00:05:55.598Z,9.85
2022-11-18T00:08:23.343Z,11.45
2022-11-18T00:10:51.308Z,11.20
2022-11-18T00:13:37.179Z,12.35
2022-11-18T00:16:05.387Z,12.30
2022-11-18T00:18:34.621Z,14.10
2022-11-18T00:21:03.132Z,14.95
2022-11-18T00:23:30.915Z,16.90
2022-11-18T00:26:03.057Z,17.63
2022-11-18T00:28:31.329Z,18.88
2022-11-18T00:31:03.716Z,19.77
2022-11-18T00:33:31.622Z,21.48
2022-11-18T00:36:00.600Z,22.92
2022-11-18T00:38:28.249Z,25.10
2022-11-18T00:41:02.135Z,26.05
2022-11-18T00:43:29.361Z,28.35
2022-11-18T00:45:57.090Z,30.33
2022-11-18T00:48:24.756Z,33.00
2022-11-18T00:50:52.719Z,35.47
2022-11-18T00:53:22.200Z,38.05
2022-11-18T00:55:50.524Z,40.38
2022-11-18T00:58:18.232Z,42.80
2022-11-18T01:00:48.404Z,46.20
2022-11-18T01:03:16.074Z,49.15
2022-11-18T01:05:43.745Z,52.58
2022-11-18T01:08:11.944Z,54.53
2022-11-18T01:10:41.455Z,59.00
2022-11-18T01:13:20.289Z,60.72
2022-11-18T01:15:48.851Z,64.93
2022-11-18T01:18:16.647Z,68.70
2022-11-18T01:20:44.557Z,72.57
2022-11-18T01:23:12.401Z,73.15
2022-11-18T01:25:42.175Z,80.68
2022-11-18T01:28:09.991Z,82.50
2022-11-18T01:30:38.472Z,86.13
2022-11-18T01:33:06.213Z,89.43
2022-11-18T01:35:35.756Z,90.57
2022-11-18T01:38:03.807Z,93.32
2022-11-18T01:40:31.754Z,96.65
2022-11-18T01:43:00.728Z,103.18
2022-11-18T01:45:31.394Z,105.43
2022-11-18T01:48:01.547Z,110.57
2022-11-18T01:50:29.439Z,113.07
2022-11-18T01:52:58.907Z,113.75
2022-11-18T01:55:27.765Z,119.30
2022-11-18T01:58:03.014Z,123.82
2022-11-18T02:00:30.711Z,124.13
2022-11-18T02:02:58.403Z,129.00
2022-11-18T02:05:26.052Z,134.15
2022-11-18T02:07:53.751Z,134.45
2022-11-18T02:10:23.081Z,139.02
2022-11-18T02:12:50.968Z,142.63
2022-11-18T02:15:20.784Z,146.18
2022-11-18T02:17:52.709Z,150.60
2022-11-18T02:20:34.145Z,150.20
2022-11-18T02:23:16.275Z,156.50
2022-11-18T02:25:48.794Z,164.80
2022-11-18T02:28:26.381Z,165.40
2022-11-18T02:30:59.010Z,170.13
2022-11-18T02:33:29.318Z,174.18
2022-11-18T02:35:59.288Z,176.23
2022-11-18T02:38:28.838Z,184.45
2022-11-18T02:40:57.646Z,187.20
2022-11-18T02:43:26.574Z,191.27
2022-11-18T02:45:57.323Z,195.82
2022-11-18T02:48:25.793Z,202.57
2022-11-18T02:50:53.509Z,201.00
2022-11-18T02:53:21.952Z,208.38
2022-11-18T02:55:49.661Z,213.90
2022-11-18T02:58:18.502Z,218.18
2022-11-18T03:00:46.170Z,221.63
2022-11-18T03:03:26.839Z,225.57
2022-11-18T03:05:59.269Z,227.02
2022-11-18T03:08:27.137Z,233.80
2022-11-18T03:11:04.650Z,237.98
2022-11-18T03:13:35.378Z,243.82
2022-11-18T03:16:04.842Z,246.32
2022-11-18T03:18:34.764Z,248.02
2022-11-18T03:21:06.456Z,250.98
2022-11-18T03:23:36.991Z,255.43
2022-11-18T03:26:06.248Z,256.05
2022-11-18T03:28:37.007Z,261.67
2022-11-18T03:31:07.108Z,261.27
2022-11-18T03:33:37.099Z,270.02
2022-11-18T03:36:06.456Z,271.85
2022-11-18T03:38:35.916Z,270.80
2022-11-18T03:41:05.257Z,272.88
2022-11-18T03:43:35.268Z,277.65
2022-11-18T03:46:05.920Z,276.65
2022-11-18T03:48:36.958Z,279.63
2022-11-18T03:51:07.399Z,283.00
2022-11-18T03:53:36.698Z,283.38
2022-11-18T03:56:06.646Z,281.05
2022-11-18T03:58:35.592Z,283.75
2022-11-18T04:01:15.461Z,283.27
2022-11-18T04:03:44.559Z,282.77
2022-11-18T04:06:16.929Z,282.55
2022-11-18T04:08:45.866Z,284.08
2022-11-18T04:11:34.924Z,282.23
2022-11-18T04:14:02.625Z,283.23
2022-11-18T04:16:30.283Z,285.13
2022-11-18T04:19:05.696Z,284.30
2022-11-18T04:21:33.923Z,282.27
2022-11-18T04:24:01.589Z,280.65
2022-11-18T04:26:29.221Z,280.63
2022-11-18T04:28:56.854Z,280.40
2022-11-18T04:31:24.497Z,276.33
2022-11-18T04:33:52.133Z,277.92
2022-11-18T04:36:21.139Z,272.63
2022-11-18T04:38:48.857Z,272.80
2022-11-18T04:41:16.510Z,274.52
2022-11-18T04:43:44.166Z,272.27
2022-11-18T04:46:11.816Z,264.85
2022-11-18T04:48:39.466Z,271.45
2022-11-18T04:51:07.259Z,263.90
2022-11-18T04:53:36.225Z,267.35
2022-11-18T04:56:07.690Z,265.13
2022-11-18T04:58:35.332Z,260.55
2022-11-18T05:01:03.035Z,262.40
2022-11-18T05:03:30.692Z,259.70
2022-11-18T05:05:58.374Z,257.38
2022-11-18T05:08:26.044Z,256.70
2022-11-18T05:11:15.557Z,246.23
2022-11-18T05:13:42.293Z,244.95
2022-11-18T05:16:09.948Z,241.18
2022-11-18T05:18:37.595Z,242.75
2022-11-18T05:21:06.319Z,242.18
2022-11-18T05:23:33.965Z,239.35
2022-11-18T05:26:05.310Z,233.43
2022-11-18T05:28:33.001Z,237.82
2022-11-18T05:31:00.656Z,232.93
2022-11-18T05:33:28.336Z,232.13
2022-11-18T05:35:56.018Z,227.48
2022-11-18T05:38:23.685Z,222.05
2022-11-18T05:40:51.387Z,223.10
2022-11-18T05:43:19.442Z,219.38
2022-11-18T05:45:47.122Z,215.68
2022-11-18T05:48:14.764Z,215.60
2022-11-18T05:50:42.402Z,209.80
2022-11-18T05:53:10.038Z,206.93
2022-11-18T05:55:41.051Z,206.32
2022-11-18T05:58:08.747Z,202.52
2022-11-18T06:00:37.712Z,198.45
2022-11-18T06:03:05.759Z,198.80
2022-11-18T06:05:33.444Z,193.50
2022-11-18T06:08:01.094Z,193.32
2022-11-18T06:10:31.143Z,190.60
2022-11-18T06:13:00.290Z,187.50
2022-11-18T06:15:28.828Z,185.18
2022-11-18T06:17:59.808Z,182.23
2022-11-18T06:20:27.542Z,181.75
2022-11-18T06:22:56.869Z,179.40
2022-11-18T06:25:24.554Z,174.90
2022-11-18T06:27:52.518Z,170.70
2022-11-18T06:30:20.231Z,170.10
2022-11-18T06:32:47.898Z,163.77
2022-11-18T06:35:16.926Z,162.38
2022-11-18T06:37:44.630Z,163.77
2022-11-18T06:40:13.335Z,159.43
2022-11-18T06:42:58.841Z,157.23
2022-11-18T06:45:26.536Z,154.52
2022-11-18T06:47:57.675Z,152.80
2022-11-18T06:50:26.664Z,152.20
2022-11-18T06:52:54.394Z,149.20
2022-11-18T06:55:22.047Z,145.98
2022-11-18T06:57:49.716Z,143.93
2022-11-18T07:00:18.357Z,143.07
2022-11-18T07:02:46.029Z,141.35
2022-11-18T07:05:13.667Z,137.73
2022-11-18T07:07:42.765Z,135.05
2022-11-18T07:10:10.936Z,133.30
2022-11-18T07:12:38.615Z,132.82
2022-11-18T07:15:06.965Z,129.45
2022-11-18T07:17:34.618Z,129.18
2022-11-18T07:20:02.319Z,125.70
2022-11-18T07:22:29.985Z,123.30
2022-11-18T07:24:58.978Z,120.88
2022-11-18T07:27:26.634Z,121.72
2022-11-18T07:29:54.291Z,119.00
2022-11-18T07:32:21.938Z,118.00
2022-11-18T07:34:49.698Z,115.82
2022-11-18T07:37:17.451Z,113.32
2022-11-18T07:39:45.083Z,110.80
2022-11-18T07:42:14.065Z,110.65
2022-11-18T07:44:41.726Z,109.00
2022-11-18T07:47:09.427Z,105.30
2022-11-18T07:49:37.082Z,103.47
2022-11-18T07:52:04.977Z,101.57
2022-11-18T07:54:32.637Z,101.30
2022-11-18T07:57:00.325Z,98.43
2022-11-18T07:59:29.349Z,96.57
2022-11-18T08:01:57.467Z,94.28
2022-11-18T08:04:25.190Z,92.40
2022-11-18T08:06:52.930Z,92.30
2022-11-18T08:09:20.771Z,91.63
2022-11-18T08:11:48.482Z,89.85
2022-11-18T08:14:16.141Z,86.53
2022-11-18T08:16:45.135Z,86.47
2022-11-18T08:19:12.800Z,84.25
2022-11-18T08:21:40.460Z,82.00
2022-11-18T08:24:10.008Z,81.32
2022-11-18T08:26:37.686Z,78.72
2022-11-18T08:29:05.373Z,78.30
2022-11-18T08:31:33.050Z,77.63
2022-11-18T08:34:03.246Z,74.68
2022-11-18T08:36:32.432Z,74.47
2022-11-18T08:39:01.543Z,70.40
2022-11-18T08:41:30.628Z,70.88
2022-11-18T08:43:58.295Z,68.50
2022-11-18T08:46:25.941Z,67.20
2022-11-18T08:48:53.570Z,65.32
2022-11-18T08:51:22.541Z,63.42
2022-11-18T08:53:50.221Z,63.22
2022-11-18T08:56:19.225Z,61.63
2022-11-18T08:58:46.933Z,61.97
2022-11-18T09:01:14.704Z,58.13
2022-11-18T09:03:42.517Z,58.72
2022-11-18T09:06:11.080Z,58.13
2022-11-18T09:08:40.245Z,56.63
2022-11-18T09:11:08.391Z,54.78
2022-11-18T09:19:46.065Z,51.42
2022-11-18T09:21:59.608Z,49.35
2022-11-18T09:24:28.592Z,49.40
2022-11-18T09:26:56.242Z,48.45
2022-11-18T09:29:26.102Z,48.13
2022-11-18T09:31:53.929Z,45.72
2022-11-18T09:34:21.735Z,45.35
2022-11-18T09:36:49.408Z,44.08
2022-11-18T09:39:17.384Z,43.38
2022-11-18T09:41:47.495Z,42.08
2022-11-18T09:44:24.946Z,41.42
2022-11-18T09:46:59.438Z,39.97
2022-11-18T09:49:28.359Z,38.45
2022-11-18T09:51:56.015Z,39.90
2022-11-18T09:54:24.590Z,38.28
2022-11-18T09:56:54.389Z,37.88
2022-11-18T09:59:23.399Z,37.13
2022-11-18T10:01:51.298Z,36.05
2022-11-18T10:04:20.336Z,33.90
2022-11-18T10:06:48.999Z,33.88
2022-11-18T10:09:38.707Z,34.78
2022-11-18T10:12:16.001Z,33.28
2022-11-18T10:14:56.690Z,32.03
2022-11-18T10:17:32.472Z,31.42
2022-11-18T10:20:09.207Z,31.00
2022-11-18T10:22:41.087Z,29.73
2022-11-18T10:25:11.567Z,29.13
2022-11-18T10:27:41.283Z,28.90
2022-11-18T10:30:13.205Z,28.00
2022-11-18T10:32:54.539Z,27.73
2022-11-18T10:35:25.559Z,27.67
2022-11-18T10:38:07.937Z,26.08
2022-11-18T10:40:36.214Z,24.60
2022-11-18T10:43:05.251Z,25.25
2022-11-18T10:45:33.358Z,24.50
2022-11-18T10:48:03.161Z,24.00
2022-11-18T10:50:33.054Z,23.85
2022-11-18T10:53:00.811Z,22.77
2022-11-18T10:55:29.081Z,21.67
2022-11-18T10:57:59.116Z,22.13
2022-11-18T11:00:44.640Z,21.60
2022-11-18T11:03:34.899Z,21.10
2022-11-18T11:06:16.625Z,20.73
2022-11-18T11:08:49.127Z,20.42
2022-11-18T11:11:25.899Z,19.80
2022-11-18T11:13:55.541Z,18.70
2022-11-18T11:16:26.429Z,18.65
2022-11-18T11:18:56.047Z,19.25
2022-11-18T11:21:25.336Z,18.40
2022-11-18T11:23:53.062Z,17.90
2022-11-18T11:29:14.980Z,17.77
2022-11-18T11:31:47.724Z,17.75
2022-11-18T11:34:19.196Z,16.92
2022-11-18T11:36:48.558Z,16.48
2022-11-18T11:39:39.145Z,16.80
2022-11-18T11:42:09.520Z,15.95
2022-11-18T11:44:42.953Z,16.55
2022-11-18T11:47:36.201Z,14.80
2022-11-18T11:50:09.684Z,14.25
2022-11-18T11:52:41.351Z,15.00
2022-11-18T11:55:17.780Z,14.43
2022-11-18T11:57:52.792Z,14.23
2022-11-18T12:00:20.687Z,13.63
2022-11-18T12:03:11.879Z,13.02
2022-11-18T12:05:43.055Z,12.63
2022-11-18T12:08:12.555Z,11.73
2022-11-18T12:10:45.180Z,11.50
2022-11-18T12:13:21.838Z,11.93
2022-11-18T12:15:54.266Z,10.75
2022-11-18T12:18:25.386Z,10.50
2022-11-18T12:20:53.228Z,10.02
2022-11-18T12:23:22.581Z,10.65
2022-11-18T12:25:54.950Z,9.70
2022-11-18T12:28:27.413Z,9.95
2022-11-18T12:31:33.400Z,9.60
2022-11-18T12:34:04.616Z,9.65
2022-11-18T12:36:33.371Z,9.43
2022-11-18T12:39:24.018Z,9.20
2022-11-18T12:42:13.682Z,10.18
2022-11-18T12:44:41.845Z,9.35
2022-11-18T12:47:09.707Z,9.45
2022-11-18T12:50:12.589Z,9.82
2022-11-18T12:52:47.531Z,8.77
2022-11-18T12:55:17.018Z,9.30
2022-11-18T12:57:44.910Z,8.05
2022-11-18T13:00:28.724Z,7.88
2022-11-18T13:02:57.736Z,7.18
2022-11-18T13:05:27.445Z,7.03
2022-11-18T13:08:14.131Z,6.70
2022-11-18T13:10:45.337Z,6.13
2022-11-18T13:13:20.295Z,6.43
2022-11-18T13:16:09.520Z,6.00
2022-11-18T13:18:48.504Z,5.63
2022-11-18T13:21:41.019Z,6.15
2022-11-18T13:24:11.804Z,5.40
2022-11-18T13:26:40.355Z,5.60
2022-11-18T13:29:32.822Z,6.38
2022-11-18T13:32:06.409Z,5.25
2022-11-18T13:34:46.460Z,4.78
2022-11-18T13:37:18.509Z,4.50
2022-11-18T13:39:46.380Z,4.55
2022-11-18T13:42:19.056Z,4.57
2022-11-18T13:44:47.915Z,5.20
2022-11-18T13:47:25.294Z,5.20
2022-11-18T13:49:55.070Z,4.85
2022-11-18T13:52:25.383Z,4.70
2022-11-18T13:54:53.147Z,4.50
2022-11-18T13:57:21.425Z,3.92
2022-11-18T13:59:50.226Z,4.60
2022-11-18T14:02:18.687Z,3.53
2022-11-18T14:04:50.679Z,3.75
2022-11-18T14:07:27.257Z,3.70
2022-11-18T14:09:55.813Z,3.38
2022-11-18T14:12:24.839Z,4.00
2022-11-18T14:14:52.939Z,3.60
2022-11-18T14:17:21.351Z,3.38
2022-11-18T14:19:50.162Z,3.70
2022-11-18T14:22:19.329Z,3.88
2022-11-18T14:24:56.186Z,5.50
2022-11-18T14:27:40.569Z,3.92
2022-11-18T14:30:31.468Z,4.18
2022-11-18T14:33:12.685Z,4.30
2022-11-18T14:35:40.445Z,3.63
2022-11-18T14:41:09.418Z,3.60
2022-11-18T14:43:37.151Z,2.97
2022-11-18T14:46:06.400Z,2.83
2022-11-18T14:48:34.035Z,2.90
2022-11-18T14:51:02.006Z,2.85
2022-11-18T14:53:29.738Z,2.83
2022-11-18T14:55:58.091Z,2.80
2022-11-18T14:58:27.186Z,2.95
2022-11-18T15:00:55.140Z,3.70
2022-11-18T15:03:23.025Z,2.92
2022-11-18T15:05:50.795Z,2.70
2022-11-18T15:08:18.472Z,2.97
2022-11-18T15:10:46.172Z,3.22
2022-11-18T15:13:13.889Z,3.15
2022-11-18T15:15:43.065Z,3.60
2022-11-18T15:18:10.739Z,3.20
2022-11-18T15:20:38.415Z,3.47
2022-11-18T15:23:06.085Z,3.80
2022-11-18T15:25:33.822Z,3.03
2022-11-18T15:28:01.494Z,3.38
2022-11-18T15:30:29.296Z,4.95
2022-11-18T15:33:03.224Z,3.30
2022-11-18T15:35:30.971Z,4.75
2022-11-18T15:37:58.657Z,3.65
2022-11-18T15:40:26.303Z,4.30
2022-11-18T15:42:54.000Z,5.15
2022-11-18T15:45:21.649Z,7.25
2022-11-18T15:47:49.334Z,9.02
2022-11-18T15:50:18.615Z,5.25
2022-11-18T15:52:46.411Z,5.85
2022-11-18T15:55:15.613Z,3.75
2022-11-18T15:57:43.302Z,9.15
2022-11-18T16:00:12.175Z,3.97
2022-11-18T16:02:45.059Z,3.90
2022-11-18T16:05:13.369Z,4.15
2022-11-18T16:07:42.442Z,6.20
2022-11-18T16:10:28.608Z,4.78
2022-11-18T16:12:56.276Z,4.78
2022-11-18T16:15:41.496Z,4.95
2022-11-18T16:18:09.266Z,7.35
2022-11-18T16:20:38.105Z,5.70
2022-11-18T16:23:07.139Z,4.28
2022-11-18T16:25:34.812Z,3.90
2022-11-18T16:28:07.328Z,5.18
2022-11-18T16:30:49.444Z,5.40
2022-11-18T16:33:17.179Z,3.88
2022-11-18T16:35:48.577Z,5.32
2022-11-18T16:38:17.619Z,6.43
2022-11-18T16:40:45.297Z,5.25
2022-11-18T16:43:13.013Z,6.20
2022-11-18T16:45:40.927Z,4.88
2022-11-18T16:48:08.629Z,4.75
2022-11-18T16:50:36.309Z,5.20
2022-11-18T16:53:04.111Z,5.30
2022-11-18T16:55:33.087Z,5.55
2022-11-18T16:58:00.747Z,6.07
2022-11-18T17:00:59.984Z,5.70
2022-11-18T17:03:16.194Z,6.68
2022-11-18T17:05:43.843Z,6.75
2022-11-18T17:08:11.520Z,5.43
2022-11-18T17:10:40.522Z,5.72
2022-11-18T17:13:08.191Z,6.60
2022-11-18T17:15:36.492Z,8.00
2022-11-18T17:18:04.323Z,4.18
2022-11-18T17:20:31.999Z,7.80
2022-11-18T17:22:59.675Z,6.30
2022-11-18T17:25:27.387Z,3.60
2022-11-18T17:27:56.407Z,3.95
2022-11-18T17:30:24.166Z,4.60
2022-11-18T17:32:51.961Z,5.20
2022-11-18T17:35:19.634Z,3.47
2022-11-18T17:37:47.315Z,4.28
2022-11-18T17:40:15.150Z,2.97
2022-11-18T17:42:42.895Z,14.38
2022-11-18T17:45:11.970Z,3.28
2022-11-18T17:47:39.672Z,3.33
2022-11-18T17:50:08.137Z,3.40
2022-11-18T17:52:35.819Z,3.65
2022-11-18T17:55:03.655Z,2.95
2022-11-18T17:57:31.344Z,2.85
2022-11-18T17:59:58.993Z,4.40
2022-11-18T18:02:28.051Z,3.72
2022-11-18T18:04:57.927Z,3.70
2022-11-18T18:07:25.713Z,7.70
2022-11-18T18:09:53.443Z,4.45
2022-11-18T18:12:50.376Z,4.25
2022-11-18T18:15:18.184Z,4.07
2022-11-18T18:17:49.092Z,4.45
2022-11-18T18:20:16.783Z,4.32
2022-11-18T18:22:44.483Z,5.35
2022-11-18T18:25:12.680Z,4.30
2022-11-18T18:27:40.573Z,5.05
2022-11-18T18:30:09.413Z,4.30
2022-11-18T18:32:37.077Z,4.22
2022-11-18T18:35:06.999Z,4.70
2022-11-18T18:37:35.899Z,4.28
2022-11-18T18:40:03.598Z,3.92
2022-11-18T18:42:31.287Z,4.65
2022-11-18T18:45:16.782Z,3.80
2022-11-18T18:47:44.458Z,4.18
2022-11-18T18:50:13.455Z,3.92
2022-11-18T18:52:41.156Z,3.67
2022-11-18T18:55:09.343Z,3.60
2022-11-18T18:57:37.400Z,3.17
2022-11-18T19:00:05.904Z,3.60
2022-11-18T19:02:33.555Z,3.70
2022-11-18T19:05:01.207Z,3.42
2022-11-18T19:07:31.291Z,3.60
2022-11-18T19:09:59.188Z,3.60
2022-11-18T19:12:43.989Z,3.38
2022-11-18T19:15:12.766Z,2.92
2022-11-18T19:17:40.648Z,2.88
2022-11-18T19:20:26.596Z,2.70
2022-11-18T19:22:55.649Z,3.10
2022-11-18T19:25:23.466Z,2.90
2022-11-18T19:27:51.134Z,3.63
2022-11-18T19:30:18.943Z,2.97
2022-11-18T19:32:46.650Z,2.72
2022-11-18T19:35:14.644Z,3.10
2022-11-18T19:37:42.286Z,3.10
2022-11-18T19:40:12.370Z,3.15
2022-11-18T19:42:41.868Z,3.10
2022-11-18T19:45:10.041Z,2.85
2022-11-18T19:47:37.874Z,3.25
2022-11-18T19:50:06.348Z,3.13
2022-11-18T19:52:34.098Z,2.78
2022-11-18T19:55:01.784Z,2.80
2022-11-18T19:57:30.778Z,2.80
2022-11-18T19:59:58.470Z,3.05
2022-11-18T20:02:26.184Z,2.88
2022-11-18T20:05:11.628Z,3.10
2022-11-18T20:07:39.343Z,3.08
2022-11-18T20:10:09.196Z,3.20
2022-11-18T20:12:38.233Z,2.80
2022-11-18T20:15:06.866Z,2.47
2022-11-18T20:17:34.557Z,2.83
2022-11-18T20:20:02.375Z,2.88
2022-11-18T20:22:30.136Z,2.97
2022-11-18T20:24:57.835Z,2.80
2022-11-18T20:27:25.563Z,3.00
2022-11-18T20:29:55.736Z,2.47
2022-11-18T20:32:23.415Z,3.20
2022-11-18T20:34:51.172Z,2.67
2022-11-18T20:37:22.324Z,3.28
2022-11-18T20:39:53.207Z,3.30
2022-11-18T20:42:38.418Z,2.40
2022-11-18T20:45:08.500Z,3.00
2022-11-18T20:47:36.186Z,2.70
2022-11-18T20:50:03.988Z,2.35
2022-11-18T20:52:33.807Z,2.83
2022-11-18T20:55:05.601Z,2.55
2022-11-18T20:57:33.636Z,2.70
2022-11-18T21:00:01.371Z,3.22
2022-11-18T21:02:30.707Z,3.03
2022-11-18T21:04:58.439Z,2.58
2022-11-18T21:07:26.291Z,2.88
2022-11-18T21:09:53.959Z,2.35
2022-11-18T21:12:21.625Z,2.60
2022-11-18T21:14:48.469Z,2.72
2022-11-18T21:17:16.171Z,2.53
2022-11-18T21:19:48.506Z,3.08
2022-11-18T21:22:15.465Z,2.72
2022-11-18T21:24:43.191Z,2.40
2022-11-18T21:27:10.914Z,2.65
2022-11-18T21:29:39.286Z,2.58
2022-11-18T21:32:07.127Z,2.50
2022-11-18T21:34:34.888Z,2.67
2022-11-18T21:37:05.260Z,2.47
2022-11-18T21:39:32.965Z,2.47
2022-11-18T21:42:00.958Z,2.60
2022-11-18T21:44:28.852Z,2.40
2022-11-18T21:46:57.054Z,2.20
2022-11-18T21:49:24.759Z,2.55
2022-11-18T21:51:52.451Z,2.53
2022-11-18T21:54:21.450Z,2.20
2022-11-18T21:56:49.282Z,2.38
2022-11-18T21:59:17.507Z,2.50
2022-11-18T22:01:45.334Z,2.60
2022-11-18T22:04:33.540Z,2.45
2022-11-18T22:07:01.250Z,2.35
2022-11-18T22:09:36.079Z,2.63
2022-11-18T22:12:05.303Z,2.65
2022-11-18T22:14:33.002Z,2.67
2022-11-18T22:17:00.740Z,2.55
2022-11-18T22:19:28.892Z,2.60
2022-11-18T22:21:56.607Z,2.67
2022-11-18T22:24:24.408Z,3.05
2022-11-18T22:26:53.417Z,3.22
2022-11-18T22:29:21.315Z,2.83
2022-11-18T22:31:49.191Z,3.33
2022-11-18T22:34:16.849Z,3.25
2022-11-18T22:36:44.483Z,3.05
2022-11-18T22:39:12.186Z,3.20
2022-11-18T22:41:57.513Z,3.80
2022-11-18T22:44:26.503Z,3.60
2022-11-18T22:46:54.243Z,3.92
2022-11-18T22:49:22.062Z,4.03
2022-11-18T22:51:50.049Z,4.30
2022-11-18T22:57:05.547Z,4.75
2022-11-18T22:59:34.564Z,4.95
2022-11-18T23:02:02.506Z,5.47
2022-11-18T23:04:30.232Z,6.10
2022-11-18T23:06:57.907Z,6.82
2022-11-18T23:09:25.589Z,8.05
2022-11-18T23:12:11.013Z,8.00
2022-11-18T23:14:40.026Z,8.88
2022-11-18T23:17:07.706Z,9.82
2022-11-18T23:19:36.851Z,10.48
2022-11-18T23:22:04.555Z,12.02
2022-11-18T23:24:32.202Z,12.88
2022-11-18T23:26:59.855Z,13.85
2022-11-18T23:29:27.530Z,16.20
2022-11-18T23:31:56.519Z,17.17
2022-11-18T23:34:24.175Z,18.45
2022-11-18T23:36:51.847Z,20.95
2022-11-18T23:39:19.746Z,22.35
2022-11-18T23:41:47.541Z,23.95
2022-11-18T23:44:15.206Z,23.85
2022-11-18T23:46:42.884Z,27.35
2022-11-18T23:49:12.486Z,27.80
2022-11-18T23:51:41.267Z,30.08
2022-11-18T23:54:09.320Z,33.40
2022-11-18T23:56:38.427Z,34.15
2022-11-18T23:59:06.446Z,36.10
